sensor_id;sensor_type;location;lat;lon;timestamp;P1;durP1;ratioP1;P2;durP2;ratioP2
35366;SDS011;21465;52.278;20.962;2023-02-22T00:00:54;3.15;;;1.92;;
35366;SDS011;21465;52.278;20.962;2023-02-22T00:03:25;5.00;;;2.28;;
35366;SDS011;21465;52.278;20.962;2023-02-22T00:05:52;4.70;;;2.10;;
35366;SDS011;21465;52.278;20.962;2023-02-22T00:08:20;3.45;;;2.35;;
35366;SDS011;21465;52.278;20.962;2023-02-22T00:10:47;4.32;;;2.08;;
35366;SDS011;21465;52.278;20.962;2023-02-22T00:13:16;5.30;;;2.53;;
35366;SDS011;21465;52.278;20.962;2023-02-22T00:15:44;3.97;;;2.53;;
35366;SDS011;21465;52.278;20.962;2023-02-22T00:18:14;3.53;;;2.20;;
35366;SDS011;21465;52.278;20.962;2023-02-22T00:20:42;3.80;;;2.28;;
35366;SDS011;21465;52.278;20.962;2023-02-22T00:23:12;3.90;;;2.38;;
35366;SDS011;21465;52.278;20.962;2023-02-22T00:25:40;4.13;;;2.20;;
35366;SDS011;21465;52.278;20.962;2023-02-22T00:28:05;4.60;;;2.00;;
35366;SDS011;21465;52.278;20.962;2023-02-22T00:30:31;3.40;;;2.15;;
35366;SDS011;21465;52.278;20.962;2023-02-22T00:32:58;5.47;;;1.83;;
35366;SDS011;21465;52.278;20.962;2023-02-22T00:35:25;3.33;;;1.83;;
35366;SDS011;21465;52.278;20.962;2023-02-22T00:37:53;5.22;;;2.03;;
35366;SDS011;21465;52.278;20.962;2023-02-22T00:40:25;6.13;;;2.55;;
35366;SDS011;21465;52.278;20.962;2023-02-22T00:42:55;4.32;;;2.22;;
35366;SDS011;21465;52.278;20.962;2023-02-22T00:45:26;4.88;;;2.10;;
35366;SDS011;21465;52.278;20.962;2023-02-22T00:47:54;3.08;;;1.98;;
35366;SDS011;21465;52.278;20.962;2023-02-22T00:50:20;5.72;;;2.58;;
35366;SDS011;21465;52.278;20.962;2023-02-22T00:52:47;4.47;;;2.30;;
35366;SDS011;21465;52.278;20.962;2023-02-22T00:55:14;4.10;;;2.45;;
35366;SDS011;21465;52.278;20.962;2023-02-22T00:57:48;6.03;;;2.80;;
35366;SDS011;21465;52.278;20.962;2023-02-22T01:00:19;5.95;;;2.42;;
35366;SDS011;21465;52.278;20.962;2023-02-22T01:02:46;5.03;;;2.40;;
35366;SDS011;21465;52.278;20.962;2023-02-22T01:05:16;5.03;;;2.43;;
35366;SDS011;21465;52.278;20.962;2023-02-22T01:07:44;7.07;;;2.50;;
35366;SDS011;21465;52.278;20.962;2023-02-22T01:10:10;5.20;;;2.22;;
35366;SDS011;21465;52.278;20.962;2023-02-22T01:12:36;3.60;;;2.10;;
35366;SDS011;21465;52.278;20.962;2023-02-22T01:15:03;4.57;;;3.25;;
35366;SDS011;21465;52.278;20.962;2023-02-22T01:17:31;5.72;;;2.55;;
35366;SDS011;21465;52.278;20.962;2023-02-22T01:19:56;5.38;;;2.72;;
35366;SDS011;21465;52.278;20.962;2023-02-22T01:22:22;5.85;;;2.70;;
35366;SDS011;21465;52.278;20.962;2023-02-22T01:24:48;3.60;;;2.40;;
35366;SDS011;21465;52.278;20.962;2023-02-22T01:27:16;4.30;;;2.38;;
35366;SDS011;21465;52.278;20.962;2023-02-22T01:29:42;4.75;;;2.53;;
35366;SDS011;21465;52.278;20.962;2023-02-22T01:32:08;3.42;;;2.15;;
35366;SDS011;21465;52.278;20.962;2023-02-22T01:34:36;4.53;;;2.20;;
35366;SDS011;21465;52.278;20.962;2023-02-22T01:37:02;3.90;;;2.38;;
35366;SDS011;21465;52.278;20.962;2023-02-22T01:39:28;4.57;;;2.13;;
35366;SDS011;21465;52.278;20.962;2023-02-22T01:41:54;5.43;;;2.75;;
35366;SDS011;21465;52.278;20.962;2023-02-22T01:44:25;5.07;;;2.30;;
35366;SDS011;21465;52.278;20.962;2023-02-22T01:46:52;3.72;;;2.10;;
35366;SDS011;21465;52.278;20.962;2023-02-22T01:49:19;4.63;;;2.58;;
35366;SDS011;21465;52.278;20.962;2023-02-22T01:51:48;4.43;;;2.35;;
35366;SDS011;21465;52.278;20.962;2023-02-22T01:56:47;5.20;;;2.50;;
35366;SDS011;21465;52.278;20.962;2023-02-22T01:59:18;6.05;;;3.05;;
35366;SDS011;21465;52.278;20.962;2023-02-22T02:01:45;5.38;;;2.15;;
35366;SDS011;21465;52.278;20.962;2023-02-22T02:04:12;4.88;;;2.40;;
35366;SDS011;21465;52.278;20.962;2023-02-22T02:06:41;7.47;;;2.60;;
35366;SDS011;21465;52.278;20.962;2023-02-22T02:09:09;4.50;;;1.85;;
35366;SDS011;21465;52.278;20.962;2023-02-22T02:11:39;3.45;;;2.15;;
35366;SDS011;21465;52.278;20.962;2023-02-22T02:14:06;2.72;;;2.05;;
35366;SDS011;21465;52.278;20.962;2023-02-22T02:16:35;4.18;;;2.10;;
35366;SDS011;21465;52.278;20.962;2023-02-22T02:19:10;5.38;;;1.90;;
35366;SDS011;21465;52.278;20.962;2023-02-22T02:30:10;3.67;;;1.80;;
35366;SDS011;21465;52.278;20.962;2023-02-22T02:33:22;3.40;;;1.90;;
35366;SDS011;21465;52.278;20.962;2023-02-22T02:49:20;4.82;;;1.92;;
35366;SDS011;21465;52.278;20.962;2023-02-22T02:51:51;3.43;;;2.27;;
35366;SDS011;21465;52.278;20.962;2023-02-22T02:54:18;3.47;;;1.35;;
35366;SDS011;21465;52.278;20.962;2023-02-22T02:56:45;2.72;;;1.73;;
35366;SDS011;21465;52.278;20.962;2023-02-22T02:59:22;4.10;;;1.90;;
35366;SDS011;21465;52.278;20.962;2023-02-22T03:04:33;3.92;;;2.00;;
35366;SDS011;21465;52.278;20.962;2023-02-22T03:09:53;2.92;;;1.70;;
35366;SDS011;21465;52.278;20.962;2023-02-22T03:12:31;4.82;;;2.13;;
35366;SDS011;21465;52.278;20.962;2023-02-22T03:20:37;2.97;;;1.90;;
35366;SDS011;21465;52.278;20.962;2023-02-22T03:26:16;2.13;;;1.55;;
35366;SDS011;21465;52.278;20.962;2023-02-22T03:28:48;2.28;;;1.63;;
35366;SDS011;21465;52.278;20.962;2023-02-22T03:31:20;4.50;;;1.75;;
35366;SDS011;21465;52.278;20.962;2023-02-22T03:33:49;2.63;;;1.58;;
35366;SDS011;21465;52.278;20.962;2023-02-22T03:36:20;3.45;;;1.58;;
35366;SDS011;21465;52.278;20.962;2023-02-22T03:38:49;2.08;;;1.25;;
35366;SDS011;21465;52.278;20.962;2023-02-22T03:41:21;1.95;;;1.58;;
35366;SDS011;21465;52.278;20.962;2023-02-22T03:43:56;2.10;;;1.15;;
35366;SDS011;21465;52.278;20.962;2023-02-22T03:46:24;1.83;;;1.50;;
35366;SDS011;21465;52.278;20.962;2023-02-22T03:48:53;2.65;;;1.38;;
35366;SDS011;21465;52.278;20.962;2023-02-22T03:51:24;3.45;;;1.83;;
35366;SDS011;21465;52.278;20.962;2023-02-22T03:53:50;2.47;;;1.60;;
35366;SDS011;21465;52.278;20.962;2023-02-22T03:56:32;2.65;;;1.63;;
35366;SDS011;21465;52.278;20.962;2023-02-22T03:59:03;2.53;;;1.65;;
35366;SDS011;21465;52.278;20.962;2023-02-22T04:01:29;2.83;;;1.80;;
35366;SDS011;21465;52.278;20.962;2023-02-22T04:03:55;4.47;;;2.20;;
35366;SDS011;21465;52.278;20.962;2023-02-22T04:06:21;3.00;;;1.40;;
35366;SDS011;21465;52.278;20.962;2023-02-22T04:08:47;2.60;;;1.60;;
35366;SDS011;21465;52.278;20.962;2023-02-22T04:11:12;3.10;;;1.70;;
35366;SDS011;21465;52.278;20.962;2023-02-22T04:13:38;3.35;;;1.98;;
35366;SDS011;21465;52.278;20.962;2023-02-22T04:16:04;3.08;;;2.10;;
35366;SDS011;21465;52.278;20.962;2023-02-22T04:18:30;3.70;;;1.70;;
35366;SDS011;21465;52.278;20.962;2023-02-22T04:20:56;2.67;;;1.92;;
35366;SDS011;21465;52.278;20.962;2023-02-22T04:23:21;1.25;;;1.13;;
35366;SDS011;21465;52.278;20.962;2023-02-22T04:25:49;1.58;;;0.93;;
35366;SDS011;21465;52.278;20.962;2023-02-22T04:28:15;0.77;;;0.77;;
35366;SDS011;21465;52.278;20.962;2023-02-22T04:30:42;1.27;;;0.65;;
35366;SDS011;21465;52.278;20.962;2023-02-22T04:33:08;0.98;;;0.80;;
35366;SDS011;21465;52.278;20.962;2023-02-22T04:35:35;0.70;;;0.70;;
35366;SDS011;21465;52.278;20.962;2023-02-22T04:38:00;1.67;;;0.63;;
35366;SDS011;21465;52.278;20.962;2023-02-22T04:40:26;1.13;;;0.90;;
35366;SDS011;21465;52.278;20.962;2023-02-22T04:42:52;0.90;;;0.80;;
35366;SDS011;21465;52.278;20.962;2023-02-22T04:45:18;0.70;;;0.70;;
35366;SDS011;21465;52.278;20.962;2023-02-22T04:47:43;0.70;;;0.70;;
35366;SDS011;21465;52.278;20.962;2023-02-22T04:50:10;0.95;;;0.70;;
35366;SDS011;21465;52.278;20.962;2023-02-22T04:52:36;0.77;;;0.60;;
35366;SDS011;21465;52.278;20.962;2023-02-22T04:55:02;0.95;;;0.70;;
35366;SDS011;21465;52.278;20.962;2023-02-22T04:57:30;0.82;;;0.73;;
35366;SDS011;21465;52.278;20.962;2023-02-22T04:59:56;0.70;;;0.70;;
35366;SDS011;21465;52.278;20.962;2023-02-22T05:02:21;0.70;;;0.70;;
35366;SDS011;21465;52.278;20.962;2023-02-22T05:04:48;1.25;;;1.13;;
35366;SDS011;21465;52.278;20.962;2023-02-22T05:07:13;0.80;;;0.70;;
35366;SDS011;21465;52.278;20.962;2023-02-22T05:09:39;1.13;;;0.80;;
35366;SDS011;21465;52.278;20.962;2023-02-22T05:12:05;1.63;;;1.00;;
35366;SDS011;21465;52.278;20.962;2023-02-22T05:14:33;1.10;;;0.90;;
35366;SDS011;21465;52.278;20.962;2023-02-22T05:16:59;1.45;;;0.77;;
35366;SDS011;21465;52.278;20.962;2023-02-22T05:19:26;0.80;;;0.80;;
35366;SDS011;21465;52.278;20.962;2023-02-22T05:21:51;0.85;;;0.85;;
35366;SDS011;21465;52.278;20.962;2023-02-22T05:24:17;1.90;;;1.00;;
35366;SDS011;21465;52.278;20.962;2023-02-22T05:26:43;1.27;;;0.80;;
35366;SDS011;21465;52.278;20.962;2023-02-22T05:29:11;0.88;;;0.80;;
35366;SDS011;21465;52.278;20.962;2023-02-22T05:31:37;1.33;;;1.10;;
35366;SDS011;21465;52.278;20.962;2023-02-22T05:34:03;0.95;;;0.77;;
35366;SDS011;21465;52.278;20.962;2023-02-22T05:36:29;0.82;;;0.82;;
35366;SDS011;21465;52.278;20.962;2023-02-22T05:38:56;1.20;;;0.98;;
35366;SDS011;21465;52.278;20.962;2023-02-22T05:41:22;0.80;;;0.70;;
35366;SDS011;21465;52.278;20.962;2023-02-22T05:43:48;1.27;;;0.73;;
35366;SDS011;21465;52.278;20.962;2023-02-22T05:46:14;1.35;;;1.20;;
35366;SDS011;21465;52.278;20.962;2023-02-22T05:48:39;1.10;;;0.70;;
35366;SDS011;21465;52.278;20.962;2023-02-22T05:51:05;1.08;;;0.70;;
35366;SDS011;21465;52.278;20.962;2023-02-22T05:53:32;1.55;;;0.90;;
35366;SDS011;21465;52.278;20.962;2023-02-22T05:55:57;0.82;;;0.82;;
35366;SDS011;21465;52.278;20.962;2023-02-22T05:58:23;0.75;;;0.70;;
35366;SDS011;21465;52.278;20.962;2023-02-22T06:00:49;0.85;;;0.70;;
35366;SDS011;21465;52.278;20.962;2023-02-22T06:03:15;0.60;;;0.60;;
35366;SDS011;21465;52.278;20.962;2023-02-22T06:05:40;0.82;;;0.80;;
35366;SDS011;21465;52.278;20.962;2023-02-22T06:08:06;1.10;;;1.00;;
35366;SDS011;21465;52.278;20.962;2023-02-22T06:10:32;2.25;;;1.00;;
35366;SDS011;21465;52.278;20.962;2023-02-22T06:12:58;1.50;;;1.10;;
35366;SDS011;21465;52.278;20.962;2023-02-22T06:15:25;1.15;;;1.02;;
35366;SDS011;21465;52.278;20.962;2023-02-22T06:17:51;1.17;;;1.08;;
35366;SDS011;21465;52.278;20.962;2023-02-22T06:20:20;1.45;;;0.98;;
35366;SDS011;21465;52.278;20.962;2023-02-22T06:22:51;1.30;;;1.20;;
35366;SDS011;21465;52.278;20.962;2023-02-22T06:25:19;1.30;;;1.20;;
35366;SDS011;21465;52.278;20.962;2023-02-22T06:27:46;1.50;;;1.00;;
35366;SDS011;21465;52.278;20.962;2023-02-22T06:30:13;1.15;;;1.00;;
35366;SDS011;21465;52.278;20.962;2023-02-22T06:32:40;0.80;;;0.80;;
35366;SDS011;21465;52.278;20.962;2023-02-22T06:35:08;1.30;;;1.10;;
35366;SDS011;21465;52.278;20.962;2023-02-22T06:37:33;1.25;;;1.00;;
35366;SDS011;21465;52.278;20.962;2023-02-22T06:39:59;1.08;;;0.82;;
35366;SDS011;21465;52.278;20.962;2023-02-22T06:42:25;1.13;;;1.00;;
35366;SDS011;21465;52.278;20.962;2023-02-22T06:44:51;1.35;;;1.00;;
35366;SDS011;21465;52.278;20.962;2023-02-22T06:47:16;1.20;;;1.10;;
35366;SDS011;21465;52.278;20.962;2023-02-22T06:49:43;1.08;;;0.90;;
35366;SDS011;21465;52.278;20.962;2023-02-22T06:52:09;1.45;;;1.10;;
35366;SDS011;21465;52.278;20.962;2023-02-22T06:54:35;1.10;;;1.00;;
35366;SDS011;21465;52.278;20.962;2023-02-22T06:57:01;0.98;;;0.90;;
35366;SDS011;21465;52.278;20.962;2023-02-22T06:59:27;1.30;;;1.20;;
35366;SDS011;21465;52.278;20.962;2023-02-22T07:01:53;1.08;;;1.00;;
35366;SDS011;21465;52.278;20.962;2023-02-22T07:04:19;1.55;;;1.02;;
35366;SDS011;21465;52.278;20.962;2023-02-22T07:06:46;3.42;;;1.08;;
35366;SDS011;21465;52.278;20.962;2023-02-22T07:09:13;1.30;;;1.20;;
35366;SDS011;21465;52.278;20.962;2023-02-22T07:11:40;1.30;;;1.20;;
35366;SDS011;21465;52.278;20.962;2023-02-22T07:14:06;3.25;;;1.20;;
35366;SDS011;21465;52.278;20.962;2023-02-22T07:16:32;1.42;;;1.33;;
35366;SDS011;21465;52.278;20.962;2023-02-22T07:18:58;1.23;;;1.10;;
35366;SDS011;21465;52.278;20.962;2023-02-22T07:21:25;1.27;;;1.13;;
35366;SDS011;21465;52.278;20.962;2023-02-22T07:23:52;0.90;;;0.80;;
35366;SDS011;21465;52.278;20.962;2023-02-22T07:26:19;1.30;;;1.20;;
35366;SDS011;21465;52.278;20.962;2023-02-22T07:28:45;1.30;;;1.20;;
35366;SDS011;21465;52.278;20.962;2023-02-22T07:31:12;1.15;;;1.05;;
35366;SDS011;21465;52.278;20.962;2023-02-22T07:33:40;1.77;;;1.33;;
35366;SDS011;21465;52.278;20.962;2023-02-22T07:36:08;1.25;;;1.15;;
35366;SDS011;21465;52.278;20.962;2023-02-22T07:38:34;1.42;;;0.90;;
35366;SDS011;21465;52.278;20.962;2023-02-22T07:41:00;1.20;;;1.10;;
35366;SDS011;21465;52.278;20.962;2023-02-22T07:43:27;1.10;;;1.00;;
35366;SDS011;21465;52.278;20.962;2023-02-22T07:45:54;0.90;;;0.90;;
35366;SDS011;21465;52.278;20.962;2023-02-22T07:48:21;0.98;;;0.90;;
35366;SDS011;21465;52.278;20.962;2023-02-22T07:50:49;1.35;;;1.10;;
35366;SDS011;21465;52.278;20.962;2023-02-22T07:53:16;1.20;;;0.80;;
35366;SDS011;21465;52.278;20.962;2023-02-22T07:55:43;0.90;;;0.90;;
35366;SDS011;21465;52.278;20.962;2023-02-22T07:58:12;1.02;;;0.93;;
35366;SDS011;21465;52.278;20.962;2023-02-22T08:00:39;1.02;;;0.93;;
35366;SDS011;21465;52.278;20.962;2023-02-22T08:03:07;1.13;;;0.90;;
35366;SDS011;21465;52.278;20.962;2023-02-22T08:05:35;1.25;;;0.98;;
35366;SDS011;21465;52.278;20.962;2023-02-22T08:08:02;1.23;;;1.13;;
35366;SDS011;21465;52.278;20.962;2023-02-22T08:10:28;1.00;;;0.90;;
35366;SDS011;21465;52.278;20.962;2023-02-22T08:12:55;1.25;;;1.10;;
35366;SDS011;21465;52.278;20.962;2023-02-22T08:15:28;1.10;;;1.00;;
35366;SDS011;21465;52.278;20.962;2023-02-22T08:17:58;0.80;;;0.80;;
35366;SDS011;21465;52.278;20.962;2023-02-22T08:22:51;1.10;;;0.90;;
35366;SDS011;21465;52.278;20.962;2023-02-22T08:25:17;1.13;;;1.00;;
35366;SDS011;21465;52.278;20.962;2023-02-22T08:27:44;0.90;;;0.90;;
35366;SDS011;21465;52.278;20.962;2023-02-22T08:30:15;0.90;;;0.90;;
35366;SDS011;21465;52.278;20.962;2023-02-22T08:32:44;1.33;;;1.00;;
35366;SDS011;21465;52.278;20.962;2023-02-22T08:35:11;0.95;;;0.85;;
35366;SDS011;21465;52.278;20.962;2023-02-22T08:37:45;0.70;;;0.70;;
35366;SDS011;21465;52.278;20.962;2023-02-22T08:40:17;1.00;;;0.90;;
35366;SDS011;21465;52.278;20.962;2023-02-22T08:42:45;1.55;;;1.08;;
35366;SDS011;21465;52.278;20.962;2023-02-22T08:45:12;1.10;;;1.00;;
35366;SDS011;21465;52.278;20.962;2023-02-22T08:47:38;1.85;;;1.15;;
35366;SDS011;21465;52.278;20.962;2023-02-22T08:50:04;1.65;;;1.13;;
35366;SDS011;21465;52.278;20.962;2023-02-22T08:52:31;1.10;;;1.00;;
35366;SDS011;21465;52.278;20.962;2023-02-22T08:54:57;1.30;;;0.70;;
35366;SDS011;21465;52.278;20.962;2023-02-22T08:57:22;1.95;;;1.08;;
35366;SDS011;21465;52.278;20.962;2023-02-22T08:59:49;1.33;;;1.00;;
35366;SDS011;21465;52.278;20.962;2023-02-22T09:02:17;1.20;;;1.10;;
35366;SDS011;21465;52.278;20.962;2023-02-22T09:04:45;1.27;;;1.17;;
35366;SDS011;21465;52.278;20.962;2023-02-22T09:07:12;1.00;;;0.85;;
35366;SDS011;21465;52.278;20.962;2023-02-22T09:09:41;1.15;;;1.10;;
35366;SDS011;21465;52.278;20.962;2023-02-22T09:12:07;1.10;;;1.10;;
35366;SDS011;21465;52.278;20.962;2023-02-22T09:14:33;1.00;;;1.00;;
35366;SDS011;21465;52.278;20.962;2023-02-22T09:16:59;0.93;;;0.90;;
35366;SDS011;21465;52.278;20.962;2023-02-22T09:19:25;1.33;;;1.23;;
35366;SDS011;21465;52.278;20.962;2023-02-22T09:21:55;1.10;;;1.00;;
35366;SDS011;21465;52.278;20.962;2023-02-22T09:24:22;0.85;;;0.77;;
35366;SDS011;21465;52.278;20.962;2023-02-22T09:26:49;0.70;;;0.70;;
35366;SDS011;21465;52.278;20.962;2023-02-22T09:29:22;0.88;;;0.75;;
35366;SDS011;21465;52.278;20.962;2023-02-22T09:31:50;0.70;;;0.70;;
35366;SDS011;21465;52.278;20.962;2023-02-22T09:34:17;0.80;;;0.80;;
35366;SDS011;21465;52.278;20.962;2023-02-22T09:36:46;1.00;;;0.90;;
35366;SDS011;21465;52.278;20.962;2023-02-22T09:39:13;0.82;;;0.77;;
35366;SDS011;21465;52.278;20.962;2023-02-22T09:44:35;0.75;;;0.68;;
35366;SDS011;21465;52.278;20.962;2023-02-22T09:47:11;0.90;;;0.88;;
35366;SDS011;21465;52.278;20.962;2023-02-22T09:49:42;1.00;;;0.95;;
35366;SDS011;21465;52.278;20.962;2023-02-22T09:52:26;1.17;;;0.80;;
35366;SDS011;21465;52.278;20.962;2023-02-22T09:55:06;0.98;;;0.82;;
35366;SDS011;21465;52.278;20.962;2023-02-22T09:57:35;1.08;;;0.90;;
35366;SDS011;21465;52.278;20.962;2023-02-22T10:03:25;1.10;;;1.00;;
35366;SDS011;21465;52.278;20.962;2023-02-22T10:05:36;1.83;;;1.40;;
35366;SDS011;21465;52.278;20.962;2023-02-22T10:08:12;1.30;;;1.17;;
35366;SDS011;21465;52.278;20.962;2023-02-22T10:10:40;1.40;;;1.30;;
35366;SDS011;21465;52.278;20.962;2023-02-22T10:18:37;2.13;;;1.92;;
35366;SDS011;21465;52.278;20.962;2023-02-22T10:21:13;1.60;;;1.50;;
35366;SDS011;21465;52.278;20.962;2023-02-22T10:26:24;3.22;;;2.38;;
35366;SDS011;21465;52.278;20.962;2023-02-22T10:28:52;2.30;;;2.10;;
35366;SDS011;21465;52.278;20.962;2023-02-22T10:31:29;2.60;;;2.40;;
35366;SDS011;21465;52.278;20.962;2023-02-22T10:34:04;2.38;;;2.17;;
35366;SDS011;21465;52.278;20.962;2023-02-22T10:36:34;2.40;;;2.10;;
35366;SDS011;21465;52.278;20.962;2023-02-22T10:39:12;2.53;;;2.33;;
35366;SDS011;21465;52.278;20.962;2023-02-22T10:41:57;2.60;;;1.90;;
35366;SDS011;21465;52.278;20.962;2023-02-22T10:44:33;2.67;;;2.47;;
35366;SDS011;21465;52.278;20.962;2023-02-22T10:47:01;2.55;;;2.00;;
35366;SDS011;21465;52.278;20.962;2023-02-22T10:49:33;3.50;;;3.20;;
35366;SDS011;21465;52.278;20.962;2023-02-22T10:52:02;3.50;;;2.33;;
35366;SDS011;21465;52.278;20.962;2023-02-22T10:54:35;2.13;;;1.92;;
35366;SDS011;21465;52.278;20.962;2023-02-22T10:57:05;2.75;;;2.55;;
35366;SDS011;21465;52.278;20.962;2023-02-22T10:59:36;2.90;;;2.70;;
35366;SDS011;21465;52.278;20.962;2023-02-22T11:02:17;2.30;;;2.10;;
35366;SDS011;21465;52.278;20.962;2023-02-22T11:04:49;2.10;;;1.90;;
35366;SDS011;21465;52.278;20.962;2023-02-22T11:07:19;2.70;;;2.50;;
35366;SDS011;21465;52.278;20.962;2023-02-22T11:09:51;2.50;;;2.30;;
35366;SDS011;21465;52.278;20.962;2023-02-22T11:12:20;2.30;;;2.10;;
35366;SDS011;21465;52.278;20.962;2023-02-22T11:14:51;2.20;;;2.00;;
35366;SDS011;21465;52.278;20.962;2023-02-22T11:17:21;2.30;;;2.10;;
35366;SDS011;21465;52.278;20.962;2023-02-22T11:19:51;2.40;;;2.20;;
35366;SDS011;21465;52.278;20.962;2023-02-22T11:22:22;2.45;;;2.25;;
35366;SDS011;21465;52.278;20.962;2023-02-22T11:24:55;2.25;;;2.05;;
35366;SDS011;21465;52.278;20.962;2023-02-22T11:27:27;2.35;;;2.00;;
35366;SDS011;21465;52.278;20.962;2023-02-22T11:32:51;2.25;;;2.05;;
35366;SDS011;21465;52.278;20.962;2023-02-22T11:41:16;2.70;;;2.40;;
35366;SDS011;21465;52.278;20.962;2023-02-22T11:47:14;2.63;;;2.10;;
35366;SDS011;21465;52.278;20.962;2023-02-22T11:49:46;3.03;;;1.90;;
35366;SDS011;21465;52.278;20.962;2023-02-22T11:52:34;3.15;;;2.47;;
35366;SDS011;21465;52.278;20.962;2023-02-22T12:01:48;3.50;;;2.25;;
35366;SDS011;21465;52.278;20.962;2023-02-22T12:21:52;1.90;;;1.80;;
35366;SDS011;21465;52.278;20.962;2023-02-22T12:24:44;3.13;;;1.85;;
35366;SDS011;21465;52.278;20.962;2023-02-22T12:27:39;1.85;;;1.75;;
35366;SDS011;21465;52.278;20.962;2023-02-22T12:30:26;1.63;;;1.52;;
35366;SDS011;21465;52.278;20.962;2023-02-22T12:33:24;2.33;;;1.83;;
35366;SDS011;21465;52.278;20.962;2023-02-22T12:36:15;1.95;;;1.80;;
35366;SDS011;21465;52.278;20.962;2023-02-22T12:39:19;1.83;;;1.50;;
35366;SDS011;21465;52.278;20.962;2023-02-22T12:41:53;2.00;;;1.80;;
35366;SDS011;21465;52.278;20.962;2023-02-22T12:44:39;1.95;;;1.85;;
35366;SDS011;21465;52.278;20.962;2023-02-22T12:47:15;1.58;;;1.48;;
35366;SDS011;21465;52.278;20.962;2023-02-22T12:50:20;1.63;;;1.52;;
35366;SDS011;21465;52.278;20.962;2023-02-22T12:53:13;1.70;;;1.60;;
35366;SDS011;21465;52.278;20.962;2023-02-22T12:55:54;1.77;;;1.60;;
35366;SDS011;21465;52.278;20.962;2023-02-22T12:58:58;2.35;;;1.75;;
35366;SDS011;21465;52.278;20.962;2023-02-22T13:01:34;1.83;;;1.40;;
35366;SDS011;21465;52.278;20.962;2023-02-22T13:04:03;1.70;;;1.40;;
35366;SDS011;21465;52.278;20.962;2023-02-22T13:12:57;1.67;;;1.58;;
35366;SDS011;21465;52.278;20.962;2023-02-22T13:21:53;2.40;;;1.50;;
35366;SDS011;21465;52.278;20.962;2023-02-22T13:28:00;1.13;;;1.02;;
35366;SDS011;21465;52.278;20.962;2023-02-22T13:30:43;1.60;;;1.50;;
35366;SDS011;21465;52.278;20.962;2023-02-22T13:48:40;1.85;;;1.73;;
35366;SDS011;21465;52.278;20.962;2023-02-22T13:51:52;2.35;;;1.58;;
35366;SDS011;21465;52.278;20.962;2023-02-22T13:57:36;1.35;;;1.23;;
35366;SDS011;21465;52.278;20.962;2023-02-22T14:10:57;1.67;;;1.58;;
35366;SDS011;21465;52.278;20.962;2023-02-22T14:13:28;1.40;;;1.30;;
35366;SDS011;21465;52.278;20.962;2023-02-22T14:18:48;2.17;;;1.52;;
35366;SDS011;21465;52.278;20.962;2023-02-22T14:21:33;1.88;;;1.45;;
35366;SDS011;21465;52.278;20.962;2023-02-22T14:24:15;1.55;;;1.35;;
35366;SDS011;21465;52.278;20.962;2023-02-22T14:27:02;3.40;;;1.50;;
35366;SDS011;21465;52.278;20.962;2023-02-22T14:29:35;1.63;;;1.27;;
35366;SDS011;21465;52.278;20.962;2023-02-22T14:32:08;1.52;;;1.40;;
35366;SDS011;21465;52.278;20.962;2023-02-22T14:34:55;1.38;;;1.20;;
35366;SDS011;21465;52.278;20.962;2023-02-22T14:37:25;1.27;;;1.17;;
35366;SDS011;21465;52.278;20.962;2023-02-22T14:43:20;2.20;;;1.25;;
35366;SDS011;21465;52.278;20.962;2023-02-22T14:45:57;1.83;;;1.38;;
35366;SDS011;21465;52.278;20.962;2023-02-22T14:48:50;1.08;;;0.98;;
35366;SDS011;21465;52.278;20.962;2023-02-22T14:51:33;1.33;;;1.08;;
35366;SDS011;21465;52.278;20.962;2023-02-22T14:54:06;1.38;;;1.20;;
35366;SDS011;21465;52.278;20.962;2023-02-22T15:02:31;1.48;;;1.33;;
35366;SDS011;21465;52.278;20.962;2023-02-22T15:18:32;1.50;;;1.40;;
35366;SDS011;21465;52.278;20.962;2023-02-22T15:21:12;1.65;;;1.33;;
35366;SDS011;21465;52.278;20.962;2023-02-22T15:23:46;1.67;;;1.40;;
35366;SDS011;21465;52.278;20.962;2023-02-22T15:26:17;1.52;;;1.30;;
35366;SDS011;21465;52.278;20.962;2023-02-22T15:28:51;1.60;;;1.50;;
35366;SDS011;21465;52.278;20.962;2023-02-22T15:31:26;1.73;;;1.42;;
35366;SDS011;21465;52.278;20.962;2023-02-22T15:36:45;1.60;;;1.50;;
35366;SDS011;21465;52.278;20.962;2023-02-22T15:39:18;2.40;;;2.20;;
35366;SDS011;21465;52.278;20.962;2023-02-22T15:42:07;1.80;;;1.70;;
35366;SDS011;21465;52.278;20.962;2023-02-22T15:44:44;2.22;;;2.03;;
35366;SDS011;21465;52.278;20.962;2023-02-22T15:47:18;3.05;;;2.13;;
35366;SDS011;21465;52.278;20.962;2023-02-22T15:52:59;2.45;;;1.80;;
35366;SDS011;21465;52.278;20.962;2023-02-22T15:57:52;3.20;;;2.10;;
35366;SDS011;21465;52.278;20.962;2023-02-22T16:00:26;2.00;;;1.65;;
